createdAt,value
2023-05-08T00:01:54.146Z,99.90
2023-05-08T00:06:57.239Z,99.90
2023-05-08T00:12:00.268Z,99.90
2023-05-08T00:17:03.806Z,99.90
2023-05-08T00:22:07.061Z,99.90
2023-05-08T00:27:10.219Z,99.90
2023-05-08T00:32:13.442Z,99.90
2023-05-08T00:37:16.796Z,99.90
2023-05-08T00:42:19.973Z,99.90
2023-05-08T00:47:23.884Z,99.90
2023-05-08T00:52:29.976Z,99.90
2023-05-08T00:57:37.150Z,99.90
2023-05-08T01:02:41.494Z,99.90
2023-05-08T01:07:45.498Z,99.90
2023-05-08T01:13:00.400Z,99.90
2023-05-08T01:18:12.842Z,99.90
2023-05-08T01:23:44.433Z,99.90
2023-05-08T01:29:12.235Z,99.90
2023-05-08T01:34:25.430Z,99.90
2023-05-08T01:39:58.132Z,99.90
2023-05-08T01:45:05.546Z,99.90
2023-05-08T01:50:20.044Z,99.90
2023-05-08T01:55:31.865Z,99.90
2023-05-08T02:00:35.092Z,99.90
2023-05-08T02:05:39.169Z,99.90
2023-05-08T02:10:43.739Z,99.90
2023-05-08T02:15:49.472Z,99.90
2023-05-08T02:20:54.343Z,99.90
2023-05-08T02:25:58.566Z,99.90
2023-05-08T02:31:03.103Z,99.90
2023-05-08T02:36:07.741Z,99.90
2023-05-08T02:41:12.702Z,99.90
2023-05-08T02:46:46.700Z,99.90
2023-05-08T02:51:56.109Z,99.90
2023-05-08T02:57:06.837Z,99.90
2023-05-08T03:02:15.462Z,99.90
2023-05-08T03:07:22.206Z,99.90
2023-05-08T03:12:29.413Z,99.90
2023-05-08T03:17:35.620Z,99.90
2023-05-08T03:22:40.434Z,99.90
2023-05-08T03:27:45.371Z,99.90
2023-05-08T03:32:50.059Z,99.90
2023-05-08T03:37:54.542Z,99.90
2023-05-08T03:42:59.187Z,99.90
2023-05-08T03:48:04.308Z,99.90
2023-05-08T03:53:07.590Z,99.90
2023-05-08T03:58:29.736Z,99.90
2023-05-08T04:03:48.042Z,99.90
2023-05-08T04:09:03.238Z,99.90
2023-05-08T04:14:08.714Z,99.90
2023-05-08T04:19:17.800Z,99.90
2023-05-08T04:24:22.249Z,99.90
2023-05-08T04:29:25.975Z,99.90
2023-05-08T04:34:29.758Z,99.90
2023-05-08T04:39:32.843Z,99.90
2023-05-08T04:44:35.877Z,99.90
2023-05-08T04:49:38.847Z,99.90
2023-05-08T04:54:41.888Z,99.90
2023-05-08T04:59:45.016Z,99.90
2023-05-08T05:04:47.969Z,99.90
2023-05-08T05:09:51.046Z,99.90
2023-05-08T05:14:54.020Z,99.90
2023-05-08T05:19:57.684Z,99.90
2023-05-08T05:25:00.806Z,99.90
2023-05-08T05:30:04.175Z,99.90
2023-05-08T05:35:08.158Z,99.90
2023-05-08T05:40:13.580Z,99.90
2023-05-08T05:45:16.600Z,99.90
2023-05-08T05:50:20.191Z,99.90
2023-05-08T05:55:23.490Z,99.90
2023-05-08T06:00:26.938Z,99.90
2023-05-08T06:05:30.229Z,99.90
2023-05-08T06:10:33.470Z,99.90
2023-05-08T06:15:36.602Z,99.90
2023-05-08T06:20:39.676Z,99.90
2023-05-08T06:25:42.712Z,99.90
2023-05-08T06:30:45.799Z,99.90
2023-05-08T06:35:49.201Z,99.90
2023-05-08T06:40:52.488Z,99.90
2023-05-08T06:45:55.672Z,99.90
2023-05-08T06:50:59.171Z,99.90
2023-05-08T06:56:02.093Z,99.90
2023-05-08T07:01:05.312Z,99.90
2023-05-08T07:06:12.331Z,99.90
2023-05-08T07:11:15.593Z,99.90
2023-05-08T07:16:19.004Z,97.00
2023-05-08T07:21:22.152Z,92.40
2023-05-08T07:26:25.157Z,92.00
2023-05-08T07:31:28.218Z,91.50
2023-05-08T07:36:31.391Z,92.40
2023-05-08T07:41:35.311Z,91.30
2023-05-08T07:46:39.564Z,89.50
2023-05-08T07:51:42.528Z,90.20
2023-05-08T07:56:45.597Z,88.40
2023-05-08T08:01:48.740Z,89.10
2023-05-08T08:06:51.998Z,86.70
2023-05-08T08:11:55.137Z,86.10
2023-05-08T08:16:58.186Z,85.00
2023-05-08T08:22:01.442Z,87.80
2023-05-08T08:27:10.769Z,84.90
2023-05-08T08:32:16.620Z,86.60
2023-05-08T08:37:19.807Z,82.40
2023-05-08T08:42:23.874Z,77.80
2023-05-08T08:47:32.273Z,79.90
2023-05-08T08:53:06.580Z,78.90
2023-05-08T08:58:44.064Z,80.50
2023-05-08T09:03:50.081Z,83.60
2023-05-08T09:08:57.240Z,79.60
2023-05-08T09:14:00.333Z,75.70
2023-05-08T09:19:04.582Z,76.10
2023-05-08T09:24:08.170Z,80.50
2023-05-08T09:29:19.257Z,79.90
2023-05-08T09:34:29.335Z,79.70
2023-05-08T09:39:33.635Z,86.60
2023-05-08T09:44:50.120Z,80.80
2023-05-08T09:50:06.772Z,79.20
2023-05-08T09:55:11.170Z,82.80
2023-05-08T10:00:15.058Z,78.20
2023-05-08T10:05:24.614Z,72.30
2023-05-08T10:10:29.550Z,70.60
2023-05-08T10:15:35.493Z,69.20
2023-05-08T10:20:45.552Z,69.80
2023-05-08T10:25:52.724Z,69.20
2023-05-08T10:31:01.850Z,72.40
2023-05-08T10:36:07.235Z,65.80
2023-05-08T10:41:12.025Z,64.80
2023-05-08T10:46:49.766Z,66.80
2023-05-08T10:52:10.864Z,69.00
2023-05-08T10:57:13.971Z,69.70
2023-05-08T11:02:37.435Z,67.80
2023-05-08T11:07:58.018Z,63.50
2023-05-08T11:13:02.113Z,62.90
2023-05-08T11:18:09.311Z,61.60
2023-05-08T11:23:29.227Z,60.70
2023-05-08T11:28:40.441Z,61.90
2023-05-08T11:33:43.321Z,63.10
2023-05-08T11:39:09.783Z,59.20
2023-05-08T11:44:24.026Z,57.40
2023-05-08T11:49:29.802Z,59.30
2023-05-08T11:54:34.124Z,57.90
2023-05-08T11:59:37.911Z,59.20
2023-05-08T12:04:46.010Z,57.60
2023-05-08T12:09:49.154Z,57.00
2023-05-08T12:14:52.509Z,60.40
2023-05-08T12:19:56.875Z,61.80
2023-05-08T12:24:59.948Z,57.30
2023-05-08T12:30:10.577Z,62.40
2023-05-08T12:35:14.514Z,59.00
2023-05-08T12:40:29.100Z,58.50
2023-05-08T12:45:36.103Z,57.90
2023-05-08T12:50:41.304Z,58.40
2023-05-08T12:55:58.661Z,58.70
2023-05-08T13:01:13.819Z,57.90
2023-05-08T13:06:21.926Z,58.40
2023-05-08T13:11:34.706Z,57.60
2023-05-08T13:16:48.166Z,55.90
2023-05-08T13:21:53.122Z,54.40
2023-05-08T13:26:56.227Z,56.00
2023-05-08T13:32:00.603Z,55.30
2023-05-08T13:37:08.231Z,53.80
2023-05-08T13:42:14.360Z,53.60
2023-05-08T13:47:17.589Z,56.20
2023-05-08T13:52:20.645Z,55.40
2023-05-08T13:57:24.662Z,55.40
2023-05-08T14:02:28.446Z,56.10
2023-05-08T14:07:31.958Z,57.30
2023-05-08T14:12:36.571Z,54.10
2023-05-08T14:17:39.905Z,55.10
2023-05-08T14:22:42.828Z,54.20
2023-05-08T14:27:45.784Z,55.40
2023-05-08T14:32:49.173Z,54.30
2023-05-08T14:37:52.635Z,54.60
2023-05-08T14:42:55.944Z,55.20
2023-05-08T14:47:59.046Z,57.70
2023-05-08T14:53:02.440Z,50.60
2023-05-08T14:58:05.842Z,47.40
2023-05-08T15:03:09.117Z,44.60
2023-05-08T15:08:12.342Z,42.80
2023-05-08T15:13:15.485Z,40.20
2023-05-08T15:18:18.701Z,40.00
2023-05-08T15:23:21.936Z,39.50
2023-05-08T15:28:24.992Z,36.90
2023-05-08T15:33:27.989Z,38.60
2023-05-08T15:38:31.057Z,39.00
2023-05-08T15:43:35.230Z,42.70
2023-05-08T15:48:38.312Z,42.40
2023-05-08T15:53:41.500Z,44.60
2023-05-08T15:58:44.592Z,44.70
2023-05-08T16:03:48.124Z,46.50
2023-05-08T16:08:52.262Z,48.10
2023-05-08T16:13:55.585Z,46.10
2023-05-08T16:18:58.564Z,46.50
2023-05-08T16:24:01.963Z,44.70
2023-05-08T16:29:04.967Z,43.00
2023-05-08T16:34:07.943Z,42.10
2023-05-08T16:39:12.251Z,41.80
2023-05-08T16:44:15.477Z,42.90
2023-05-08T16:49:18.695Z,41.00
2023-05-08T16:54:21.728Z,44.30
2023-05-08T16:59:25.002Z,45.50
2023-05-08T17:04:29.703Z,45.70
2023-05-08T17:09:34.911Z,45.60
2023-05-08T17:14:40.997Z,44.30
2023-05-08T17:19:44.308Z,43.90
2023-05-08T17:24:47.858Z,43.60
2023-05-08T17:29:51.043Z,44.50
2023-05-08T17:34:54.091Z,45.60
2023-05-08T17:39:57.204Z,47.40
2023-05-08T17:45:00.264Z,50.80
2023-05-08T17:50:04.382Z,52.80
2023-05-08T17:55:08.012Z,56.20
2023-05-08T18:00:11.841Z,56.80
2023-05-08T18:05:16.210Z,57.70
2023-05-08T18:10:20.240Z,58.00
2023-05-08T18:15:23.716Z,59.40
2023-05-08T18:20:26.899Z,61.60
2023-05-08T18:25:30.566Z,63.10
2023-05-08T18:30:36.679Z,63.50
2023-05-08T18:35:40.359Z,66.40
2023-05-08T18:40:46.006Z,67.20
2023-05-08T18:45:49.088Z,67.60
2023-05-08T18:50:52.356Z,67.80
2023-05-08T18:55:55.872Z,70.00
2023-05-08T19:00:59.828Z,71.50
2023-05-08T19:06:02.910Z,74.90
2023-05-08T19:11:06.369Z,80.90
2023-05-08T19:16:09.701Z,85.40
2023-05-08T19:21:13.373Z,89.90
2023-05-08T19:26:16.875Z,91.80
2023-05-08T19:31:20.752Z,93.30
2023-05-08T19:36:25.725Z,95.40
2023-05-08T19:41:29.539Z,97.60
2023-05-08T19:46:32.719Z,99.90
2023-05-08T19:51:36.130Z,99.90
2023-05-08T19:56:40.614Z,99.90
2023-05-08T20:01:45.074Z,99.90
2023-05-08T20:06:48.661Z,99.90
2023-05-08T20:11:52.168Z,99.90
2023-05-08T20:16:55.319Z,99.90
2023-05-08T20:21:58.654Z,99.90
2023-05-08T20:27:01.678Z,99.90
2023-05-08T20:32:04.753Z,99.90
2023-05-08T20:37:07.788Z,99.90
2023-05-08T20:42:10.884Z,99.90
2023-05-08T20:47:14.011Z,99.90
2023-05-08T20:52:17.006Z,99.90
2023-05-08T20:57:20.333Z,99.90
2023-05-08T21:02:24.506Z,99.90
2023-05-08T21:07:27.859Z,99.90
2023-05-08T21:12:31.109Z,99.90
2023-05-08T21:17:34.176Z,99.90
2023-05-08T21:22:37.292Z,99.90
2023-05-08T21:27:41.152Z,99.90
2023-05-08T21:32:45.961Z,99.90
2023-05-08T21:37:54.427Z,99.90
2023-05-08T21:42:57.672Z,99.90
2023-05-08T21:48:01.374Z,99.90
2023-05-08T21:53:04.610Z,99.90
2023-05-08T21:58:07.594Z,99.90
2023-05-08T22:03:10.762Z,99.90
2023-05-08T22:08:13.954Z,99.90
2023-05-08T22:13:17.013Z,99.90
2023-05-08T22:18:20.106Z,99.90
2023-05-08T22:23:23.180Z,99.90
2023-05-08T22:28:26.773Z,99.90
2023-05-08T22:33:34.157Z,99.90
2023-05-08T22:38:37.482Z,99.90
2023-05-08T22:43:40.652Z,99.90
2023-05-08T22:48:43.665Z,99.90
2023-05-08T22:53:47.586Z,99.90
2023-05-08T22:58:50.912Z,99.90
2023-05-08T23:03:54.696Z,99.90
2023-05-08T23:08:57.706Z,99.90
2023-05-08T23:14:00.830Z,99.90
2023-05-08T23:19:04.952Z,99.90
2023-05-08T23:24:08.226Z,99.90
2023-05-08T23:29:11.171Z,99.90
2023-05-08T23:34:14.173Z,99.90
2023-05-08T23:39:17.224Z,99.90
2023-05-08T23:44:20.202Z,99.90
2023-05-08T23:49:23.369Z,99.90
2023-05-08T23:54:26.346Z,99.90
2023-05-08T23:59:29.335Z,99.90
